createdAt,value
2023-06-30T00:00:13.747Z,96.63
2023-06-30T00:02:42.206Z,96.95
2023-06-30T00:05:09.167Z,96.89
2023-06-30T00:07:35.927Z,96.74
2023-06-30T00:10:02.720Z,96.79
2023-06-30T00:12:29.361Z,96.65
2023-06-30T00:14:55.926Z,96.88
2023-06-30T00:17:23.617Z,97.22
2023-06-30T00:19:52.074Z,97.65
2023-06-30T00:22:22.682Z,97.49
2023-06-30T00:24:56.268Z,97.40
2023-06-30T00:27:25.925Z,97.23
2023-06-30T00:29:52.659Z,97.28
2023-06-30T00:32:19.257Z,97.07
2023-06-30T00:34:45.937Z,97.06
2023-06-30T00:37:12.518Z,97.11
2023-06-30T00:39:39.088Z,97.25
2023-06-30T00:42:05.996Z,97.30
2023-06-30T00:44:32.553Z,97.72
2023-06-30T00:47:02.314Z,97.68
2023-06-30T00:49:29.986Z,97.99
2023-06-30T00:51:56.745Z,97.94
2023-06-30T00:54:23.923Z,97.88
2023-06-30T00:56:50.468Z,97.92
2023-06-30T00:59:18.152Z,97.98
2023-06-30T01:01:50.308Z,97.98
2023-06-30T01:04:26.207Z,97.90
2023-06-30T01:07:02.500Z,97.82
2023-06-30T01:09:34.178Z,97.71
2023-06-30T01:12:00.892Z,97.93
2023-06-30T01:14:28.696Z,98.15
2023-06-30T01:16:56.129Z,98.39
2023-06-30T01:19:46.010Z,98.71
2023-06-30T01:22:20.666Z,98.73
2023-06-30T01:24:48.955Z,98.93
2023-06-30T01:27:15.525Z,98.71
2023-06-30T01:29:43.547Z,98.58
2023-06-30T01:32:10.880Z,98.34
2023-06-30T01:34:37.570Z,98.20
2023-06-30T01:37:04.490Z,98.75
2023-06-30T01:39:31.488Z,98.91
2023-06-30T01:41:58.053Z,99.15
2023-06-30T01:44:24.728Z,99.20
2023-06-30T01:46:51.621Z,99.16
2023-06-30T01:49:18.927Z,99.32
2023-06-30T01:51:45.450Z,99.39
2023-06-30T01:54:12.020Z,99.19
2023-06-30T01:56:38.891Z,99.08
2023-06-30T01:59:05.405Z,99.10
2023-06-30T02:01:32.027Z,99.22
2023-06-30T02:03:58.789Z,99.19
2023-06-30T02:06:25.477Z,98.96
2023-06-30T02:08:52.129Z,99.37
2023-06-30T02:11:18.874Z,99.31
2023-06-30T02:13:45.406Z,99.49
2023-06-30T02:16:12.000Z,99.58
2023-06-30T02:18:40.640Z,99.58
2023-06-30T02:21:07.253Z,99.18
2023-06-30T02:23:34.060Z,99.33
2023-06-30T02:26:00.584Z,99.47
2023-06-30T02:28:27.319Z,99.94
2023-06-30T02:30:55.100Z,100.00
2023-06-30T02:33:21.795Z,100.00
2023-06-30T02:35:48.694Z,100.00
2023-06-30T02:38:15.517Z,100.00
2023-06-30T02:40:42.109Z,100.00
2023-06-30T02:43:09.511Z,100.00
2023-06-30T02:45:36.092Z,100.00
2023-06-30T02:48:03.705Z,100.00
2023-06-30T02:50:31.470Z,100.00
2023-06-30T02:53:01.407Z,100.00
2023-06-30T02:55:28.394Z,100.00
2023-06-30T02:57:55.045Z,100.00
2023-06-30T03:00:21.659Z,100.00
2023-06-30T03:02:48.778Z,100.00
2023-06-30T03:05:15.665Z,100.00
2023-06-30T03:07:42.209Z,100.00
2023-06-30T03:10:09.369Z,100.00
2023-06-30T03:12:36.002Z,100.00
2023-06-30T03:15:02.647Z,100.00
2023-06-30T03:17:29.279Z,100.00
2023-06-30T03:19:55.897Z,100.00
2023-06-30T03:22:23.421Z,100.00
2023-06-30T03:24:50.113Z,100.00
2023-06-30T03:27:16.703Z,100.00
2023-06-30T03:29:43.381Z,100.00
2023-06-30T03:32:09.982Z,100.00
2023-06-30T03:34:36.514Z,100.00
2023-06-30T03:37:03.343Z,100.00
2023-06-30T03:39:29.983Z,100.00
2023-06-30T03:41:56.701Z,100.00
2023-06-30T03:44:23.345Z,100.00
2023-06-30T03:46:50.016Z,100.00
2023-06-30T03:49:16.557Z,100.00
2023-06-30T03:51:43.146Z,100.00
2023-06-30T03:54:10.101Z,100.00
2023-06-30T03:56:36.772Z,100.00
2023-06-30T03:59:03.373Z,100.00
2023-06-30T04:01:29.915Z,100.00
2023-06-30T04:03:56.544Z,100.00
2023-06-30T04:06:23.255Z,100.00
2023-06-30T04:08:50.747Z,100.00
2023-06-30T04:11:17.296Z,100.00
2023-06-30T04:13:43.812Z,100.00
2023-06-30T04:16:10.710Z,100.00
2023-06-30T04:18:37.756Z,100.00
2023-06-30T04:21:04.363Z,100.00
2023-06-30T04:23:30.941Z,100.00
2023-06-30T04:25:57.989Z,100.00
2023-06-30T04:28:24.572Z,100.00
2023-06-30T04:30:51.270Z,100.00
2023-06-30T04:33:17.833Z,100.00
2023-06-30T04:35:45.344Z,100.00
2023-06-30T04:38:12.139Z,100.00
2023-06-30T04:40:38.765Z,100.00
2023-06-30T04:43:12.405Z,100.00
2023-06-30T04:45:40.560Z,100.00
2023-06-30T04:48:07.370Z,100.00
2023-06-30T04:50:34.146Z,100.00
2023-06-30T04:53:00.719Z,99.97
2023-06-30T04:55:27.212Z,99.66
2023-06-30T04:57:57.374Z,99.49
2023-06-30T05:00:24.373Z,99.18
2023-06-30T05:02:51.015Z,99.26
2023-06-30T05:05:17.725Z,98.39
2023-06-30T05:07:44.335Z,98.02
2023-06-30T05:10:11.075Z,97.65
2023-06-30T05:12:37.620Z,97.23
2023-06-30T05:15:04.647Z,96.64
2023-06-30T05:17:31.325Z,96.19
2023-06-30T05:19:58.018Z,95.56
2023-06-30T05:22:24.566Z,93.98
2023-06-30T05:24:51.113Z,94.02
2023-06-30T05:27:19.440Z,92.56
2023-06-30T05:29:46.060Z,91.81
2023-06-30T05:32:12.605Z,90.93
2023-06-30T05:34:39.151Z,91.11
2023-06-30T05:37:06.104Z,88.73
2023-06-30T05:39:32.643Z,88.85
2023-06-30T05:41:59.206Z,87.71
2023-06-30T05:44:25.857Z,87.93
2023-06-30T05:46:52.460Z,86.38
2023-06-30T05:49:19.148Z,86.11
2023-06-30T05:51:45.667Z,85.18
2023-06-30T05:54:12.194Z,84.92
2023-06-30T05:56:38.837Z,84.14
2023-06-30T05:59:05.906Z,83.88
2023-06-30T06:01:32.520Z,82.12
2023-06-30T06:03:59.228Z,81.71
2023-06-30T06:06:26.017Z,80.82
2023-06-30T06:08:52.548Z,80.29
2023-06-30T06:11:19.067Z,79.55
2023-06-30T06:13:45.691Z,79.60
2023-06-30T06:16:12.278Z,78.61
2023-06-30T06:18:39.083Z,78.60
2023-06-30T06:21:05.994Z,77.98
2023-06-30T06:23:32.660Z,76.75
2023-06-30T06:25:59.443Z,73.53
2023-06-30T06:28:25.981Z,72.65
2023-06-30T06:30:52.854Z,72.85
2023-06-30T06:33:19.475Z,73.39
2023-06-30T06:35:46.363Z,73.56
2023-06-30T06:38:17.269Z,73.31
2023-06-30T06:40:47.045Z,72.69
2023-06-30T06:43:13.891Z,72.44
2023-06-30T06:45:42.820Z,72.14
2023-06-30T06:48:22.136Z,68.96
2023-06-30T06:51:03.211Z,66.91
2023-06-30T06:53:31.811Z,65.15
2023-06-30T06:55:58.682Z,65.14
2023-06-30T06:58:26.921Z,64.71
2023-06-30T07:00:53.856Z,65.24
2023-06-30T07:03:20.836Z,65.81
2023-06-30T07:05:48.029Z,64.46
2023-06-30T07:08:16.431Z,64.06
2023-06-30T07:10:43.569Z,63.77
2023-06-30T07:13:10.531Z,63.55
2023-06-30T07:15:37.611Z,63.52
2023-06-30T07:18:04.538Z,62.77
2023-06-30T07:20:31.238Z,63.56
2023-06-30T07:22:58.044Z,62.48
2023-06-30T07:25:25.981Z,61.79
2023-06-30T07:27:58.681Z,61.65
2023-06-30T07:30:26.542Z,61.92
2023-06-30T07:32:53.342Z,60.79
2023-06-30T07:35:20.079Z,60.14
2023-06-30T07:37:47.607Z,59.82
2023-06-30T07:40:16.973Z,59.63
2023-06-30T07:42:47.250Z,59.18
2023-06-30T07:45:15.823Z,59.75
2023-06-30T07:47:46.987Z,59.11
2023-06-30T07:50:15.244Z,58.65
2023-06-30T07:52:47.460Z,58.94
2023-06-30T07:55:17.269Z,57.97
2023-06-30T07:57:45.221Z,57.05
2023-06-30T08:00:13.430Z,55.92
2023-06-30T08:02:40.143Z,57.10
2023-06-30T08:05:07.242Z,57.35
2023-06-30T08:07:47.996Z,56.85
2023-06-30T08:10:16.512Z,57.70
2023-06-30T08:12:43.045Z,56.66
2023-06-30T08:15:09.915Z,57.49
2023-06-30T08:17:53.966Z,55.86
2023-06-30T08:20:23.076Z,55.48
2023-06-30T08:22:49.669Z,54.12
2023-06-30T08:25:17.304Z,54.27
2023-06-30T08:27:44.112Z,54.16
2023-06-30T08:30:10.886Z,55.17
2023-06-30T08:32:37.612Z,54.02
2023-06-30T08:35:04.457Z,54.66
2023-06-30T08:37:31.054Z,54.36
2023-06-30T08:39:57.663Z,52.47
2023-06-30T08:42:27.632Z,52.63
2023-06-30T08:44:54.983Z,51.94
2023-06-30T08:47:26.513Z,52.11
2023-06-30T08:49:54.043Z,52.02
2023-06-30T08:52:20.698Z,54.77
2023-06-30T08:54:47.255Z,54.27
2023-06-30T08:57:16.667Z,53.48
2023-06-30T08:59:43.994Z,52.41
2023-06-30T09:02:12.623Z,52.05
2023-06-30T09:04:43.575Z,52.56
2023-06-30T09:07:19.325Z,51.12
2023-06-30T09:09:49.663Z,50.05
2023-06-30T09:12:16.480Z,48.72
2023-06-30T09:14:46.105Z,49.45
2023-06-30T09:17:12.999Z,49.47
2023-06-30T09:19:39.955Z,48.79
2023-06-30T09:22:51.501Z,49.18
2023-06-30T09:24:53.373Z,49.56
2023-06-30T09:27:19.977Z,51.75
2023-06-30T09:29:54.210Z,53.31
2023-06-30T09:32:26.484Z,53.30
2023-06-30T09:34:56.161Z,52.69
2023-06-30T09:37:22.795Z,52.49
2023-06-30T09:39:52.808Z,52.13
2023-06-30T09:42:22.111Z,51.30
2023-06-30T09:44:50.927Z,51.59
2023-06-30T09:47:19.356Z,51.07
2023-06-30T09:49:46.346Z,50.13
2023-06-30T09:52:24.509Z,47.92
2023-06-30T09:54:51.123Z,47.56
2023-06-30T09:57:17.769Z,48.60
2023-06-30T09:59:47.277Z,47.39
2023-06-30T10:02:16.153Z,47.44
2023-06-30T10:04:44.493Z,47.88
2023-06-30T10:07:14.600Z,47.66
2023-06-30T10:09:41.914Z,47.55
2023-06-30T10:12:09.942Z,48.18
2023-06-30T10:14:37.324Z,48.71
2023-06-30T10:17:07.010Z,48.99
2023-06-30T10:19:34.230Z,49.29
2023-06-30T10:22:00.998Z,49.10
2023-06-30T10:24:28.384Z,48.54
2023-06-30T10:26:56.198Z,47.40
2023-06-30T10:29:23.528Z,47.56
2023-06-30T10:31:50.423Z,46.32
2023-06-30T10:34:18.339Z,45.43
2023-06-30T10:36:45.569Z,46.08
2023-06-30T10:39:12.501Z,45.76
2023-06-30T10:41:58.949Z,46.81
2023-06-30T10:44:38.109Z,46.36
2023-06-30T10:47:05.230Z,45.63
2023-06-30T10:49:42.274Z,46.39
2023-06-30T10:52:10.781Z,46.43
2023-06-30T10:54:43.700Z,46.00
2023-06-30T10:57:11.557Z,46.42
2023-06-30T10:59:45.649Z,46.77
2023-06-30T11:02:18.406Z,44.24
2023-06-30T11:04:46.830Z,43.24
2023-06-30T11:07:25.169Z,40.73
2023-06-30T11:09:51.737Z,40.97
2023-06-30T11:12:29.021Z,41.77
2023-06-30T11:14:59.927Z,42.24
2023-06-30T11:17:58.460Z,42.77
2023-06-30T11:20:27.961Z,43.46
2023-06-30T11:23:06.511Z,42.94
2023-06-30T11:25:34.807Z,42.13
2023-06-30T11:28:03.411Z,42.02
2023-06-30T11:30:35.626Z,41.24
2023-06-30T11:33:02.307Z,41.66
2023-06-30T11:35:30.364Z,42.28
2023-06-30T11:37:56.933Z,41.88
2023-06-30T11:40:23.812Z,41.74
2023-06-30T11:42:53.022Z,41.50
2023-06-30T11:45:28.126Z,41.68
2023-06-30T11:47:55.652Z,41.50
2023-06-30T11:50:22.922Z,40.31
2023-06-30T11:52:49.910Z,40.83
2023-06-30T11:55:17.314Z,39.86
2023-06-30T11:57:48.025Z,41.19
2023-06-30T12:00:18.175Z,41.40
2023-06-30T12:02:51.694Z,41.38
2023-06-30T12:05:24.662Z,42.18
2023-06-30T12:07:55.240Z,42.26
2023-06-30T12:10:34.136Z,43.19
2023-06-30T12:13:00.723Z,44.17
2023-06-30T12:15:30.672Z,44.47
2023-06-30T12:17:57.281Z,43.35
2023-06-30T12:20:36.155Z,42.06
2023-06-30T12:23:05.083Z,43.26
2023-06-30T12:25:34.653Z,42.05
2023-06-30T12:28:05.439Z,40.20
2023-06-30T12:30:32.471Z,42.09
2023-06-30T12:33:00.580Z,41.56
2023-06-30T12:35:38.654Z,40.51
2023-06-30T12:38:10.334Z,41.45
2023-06-30T12:40:36.951Z,40.96
2023-06-30T12:43:03.751Z,39.92
2023-06-30T12:45:30.534Z,40.39
2023-06-30T12:47:57.471Z,41.93
2023-06-30T12:50:24.082Z,42.95
2023-06-30T12:52:50.809Z,43.07
2023-06-30T12:55:21.674Z,44.02
2023-06-30T12:57:48.581Z,42.96
2023-06-30T13:00:16.201Z,40.80
2023-06-30T13:02:42.741Z,40.10
2023-06-30T13:05:09.523Z,40.13
2023-06-30T13:07:36.398Z,39.07
2023-06-30T13:10:04.210Z,38.81
2023-06-30T13:12:30.932Z,39.44
2023-06-30T13:14:58.232Z,38.47
2023-06-30T13:17:25.430Z,38.38
2023-06-30T13:19:52.655Z,37.92
2023-06-30T13:22:19.386Z,36.72
2023-06-30T13:24:47.282Z,36.83
2023-06-30T13:27:13.911Z,37.07
2023-06-30T13:29:50.844Z,36.01
2023-06-30T13:32:17.662Z,36.92
2023-06-30T13:34:46.007Z,37.08
2023-06-30T13:37:12.669Z,36.54
2023-06-30T13:39:39.826Z,36.43
2023-06-30T13:42:07.292Z,37.00
2023-06-30T13:44:34.973Z,37.39
2023-06-30T13:47:01.953Z,37.32
2023-06-30T13:49:28.902Z,38.14
2023-06-30T13:51:55.539Z,38.22
2023-06-30T13:54:25.857Z,38.71
2023-06-30T13:56:53.435Z,38.78
2023-06-30T13:59:19.989Z,38.46
2023-06-30T14:01:46.784Z,38.85
2023-06-30T14:04:13.754Z,38.32
2023-06-30T14:06:40.643Z,37.64
2023-06-30T14:09:11.026Z,37.01
2023-06-30T14:11:38.887Z,35.73
2023-06-30T14:14:06.311Z,36.99
2023-06-30T14:16:36.355Z,37.48
2023-06-30T14:19:03.525Z,37.25
2023-06-30T14:21:31.977Z,38.99
2023-06-30T14:23:59.283Z,37.32
2023-06-30T14:26:26.178Z,36.35
2023-06-30T14:28:53.656Z,36.71
2023-06-30T14:31:20.445Z,36.23
2023-06-30T14:33:47.132Z,36.20
2023-06-30T14:36:13.680Z,35.85
2023-06-30T14:38:40.245Z,34.81
2023-06-30T14:41:06.807Z,34.90
2023-06-30T14:43:33.520Z,35.95
2023-06-30T14:46:00.111Z,36.54
2023-06-30T14:48:26.668Z,36.91
2023-06-30T14:50:53.282Z,37.68
2023-06-30T14:53:19.957Z,38.74
2023-06-30T14:55:46.694Z,39.62
2023-06-30T14:58:13.387Z,39.34
2023-06-30T15:00:40.121Z,38.55
2023-06-30T15:03:07.387Z,39.13
2023-06-30T15:05:34.092Z,38.85
2023-06-30T15:08:00.776Z,40.94
2023-06-30T15:10:27.693Z,41.17
2023-06-30T15:12:54.324Z,40.92
2023-06-30T15:15:21.004Z,40.30
2023-06-30T15:17:47.649Z,41.43
2023-06-30T15:20:14.299Z,41.54
2023-06-30T15:22:40.874Z,41.11
2023-06-30T15:25:07.839Z,41.18
2023-06-30T15:27:35.728Z,40.15
2023-06-30T15:30:04.496Z,40.08
2023-06-30T15:32:31.131Z,41.85
2023-06-30T15:34:57.701Z,42.79
2023-06-30T15:37:24.397Z,43.38
2023-06-30T15:39:51.074Z,43.87
2023-06-30T15:42:17.685Z,44.61
2023-06-30T15:44:44.334Z,44.81
2023-06-30T15:47:10.863Z,46.10
2023-06-30T15:49:37.523Z,46.88
2023-06-30T15:52:04.555Z,47.82
2023-06-30T15:54:31.241Z,49.00
2023-06-30T15:56:57.871Z,50.33
2023-06-30T15:59:24.463Z,51.28
2023-06-30T16:01:51.033Z,50.75
2023-06-30T16:04:17.655Z,50.91
2023-06-30T16:06:44.277Z,48.94
2023-06-30T16:09:10.841Z,47.98
2023-06-30T16:11:37.667Z,45.14
2023-06-30T16:14:04.180Z,45.56
2023-06-30T16:16:30.783Z,44.34
2023-06-30T16:18:57.380Z,43.93
2023-06-30T16:21:23.959Z,43.47
2023-06-30T16:23:51.690Z,42.64
2023-06-30T16:26:20.859Z,41.49
2023-06-30T16:28:47.489Z,41.54
2023-06-30T16:31:14.097Z,40.76
2023-06-30T16:33:40.815Z,40.72
2023-06-30T16:36:08.836Z,39.15
2023-06-30T16:38:35.370Z,39.38
2023-06-30T16:41:01.929Z,40.04
2023-06-30T16:43:28.586Z,40.67
2023-06-30T16:45:56.049Z,40.96
2023-06-30T16:48:22.727Z,39.83
2023-06-30T16:50:49.325Z,39.97
2023-06-30T16:53:15.927Z,40.72
2023-06-30T16:55:42.501Z,42.92
2023-06-30T16:58:09.124Z,44.40
2023-06-30T17:00:35.724Z,45.38
2023-06-30T17:03:02.375Z,46.83
2023-06-30T17:05:29.010Z,47.20
2023-06-30T17:07:55.624Z,48.23
2023-06-30T17:10:22.618Z,48.48
2023-06-30T17:12:49.167Z,49.50
2023-06-30T17:15:15.806Z,50.09
2023-06-30T17:17:42.476Z,50.02
2023-06-30T17:20:09.348Z,50.64
2023-06-30T17:22:35.881Z,50.83
2023-06-30T17:25:05.217Z,50.81
2023-06-30T17:27:32.680Z,51.61
2023-06-30T17:29:59.421Z,52.19
2023-06-30T17:32:26.061Z,52.57
2023-06-30T17:34:52.644Z,52.39
2023-06-30T17:37:19.219Z,52.19
2023-06-30T17:39:45.817Z,53.35
2023-06-30T17:42:12.544Z,53.01
2023-06-30T17:44:39.202Z,52.15
2023-06-30T17:47:06.147Z,53.26
2023-06-30T17:49:34.725Z,53.28
2023-06-30T17:52:01.776Z,53.35
2023-06-30T17:54:31.875Z,53.50
2023-06-30T17:56:58.992Z,53.76
2023-06-30T17:59:27.719Z,54.04
2023-06-30T18:01:54.421Z,53.99
2023-06-30T18:04:21.202Z,52.99
2023-06-30T18:07:08.643Z,54.71
2023-06-30T18:09:36.759Z,55.06
2023-06-30T18:12:04.163Z,55.51
2023-06-30T18:14:31.757Z,55.97
2023-06-30T18:16:59.399Z,55.91
2023-06-30T18:19:26.393Z,56.14
2023-06-30T18:21:54.064Z,56.87
2023-06-30T18:24:20.869Z,57.02
2023-06-30T18:26:48.973Z,57.63
2023-06-30T18:29:22.506Z,58.07
2023-06-30T18:31:50.093Z,58.72
2023-06-30T18:34:16.761Z,59.65
2023-06-30T18:36:43.538Z,59.53
2023-06-30T18:39:10.421Z,59.96
2023-06-30T18:41:37.069Z,59.95
2023-06-30T18:44:04.133Z,60.34
2023-06-30T18:46:30.876Z,60.68
2023-06-30T18:48:57.906Z,60.95
2023-06-30T18:51:28.586Z,60.25
2023-06-30T18:53:55.683Z,60.26
2023-06-30T18:56:24.132Z,60.12
2023-06-30T18:58:55.306Z,60.66
2023-06-30T19:01:21.983Z,60.51
2023-06-30T19:03:49.667Z,60.48
2023-06-30T19:06:16.624Z,60.63
2023-06-30T19:08:43.313Z,61.01
2023-06-30T19:11:10.107Z,60.10
2023-06-30T19:13:36.728Z,59.91
2023-06-30T19:16:03.436Z,59.49
2023-06-30T19:18:29.984Z,59.25
2023-06-30T19:20:56.757Z,59.01
2023-06-30T19:23:23.327Z,58.46
2023-06-30T19:25:52.722Z,57.59
2023-06-30T19:28:20.658Z,57.70
2023-06-30T19:30:47.585Z,57.45
2023-06-30T19:33:14.188Z,57.78
2023-06-30T19:35:40.822Z,57.79
2023-06-30T19:38:07.451Z,58.05
2023-06-30T19:40:34.035Z,58.47
2023-06-30T19:43:00.573Z,58.51
2023-06-30T19:45:27.138Z,59.00
2023-06-30T19:47:53.770Z,58.57
2023-06-30T19:50:23.965Z,58.92
2023-06-30T19:52:51.613Z,59.01
2023-06-30T19:55:19.783Z,59.11
2023-06-30T19:57:46.758Z,59.39
2023-06-30T20:00:13.583Z,59.60
2023-06-30T20:02:42.816Z,59.52
2023-06-30T20:05:09.800Z,59.96
2023-06-30T20:07:36.346Z,59.77
2023-06-30T20:10:02.951Z,59.96
2023-06-30T20:12:29.555Z,60.27
2023-06-30T20:14:57.299Z,60.62
2023-06-30T20:17:24.062Z,60.97
2023-06-30T20:19:50.616Z,61.25
2023-06-30T20:22:17.231Z,61.30
2023-06-30T20:24:43.884Z,61.28
2023-06-30T20:27:10.586Z,61.45
2023-06-30T20:29:37.168Z,61.53
2023-06-30T20:32:04.003Z,61.55
2023-06-30T20:34:31.194Z,61.73
2023-06-30T20:36:57.776Z,61.96
2023-06-30T20:39:24.462Z,62.23
2023-06-30T20:41:50.994Z,62.04
2023-06-30T20:44:17.612Z,62.05
2023-06-30T20:46:44.219Z,61.96
2023-06-30T20:49:10.775Z,61.83
2023-06-30T20:51:37.297Z,62.07
2023-06-30T20:54:03.936Z,61.97
2023-06-30T20:56:31.048Z,62.13
2023-06-30T20:58:57.582Z,62.52
2023-06-30T21:01:24.223Z,62.73
2023-06-30T21:03:53.680Z,63.18
2023-06-30T21:06:20.537Z,62.58
2023-06-30T21:08:47.173Z,63.12
2023-06-30T21:11:13.819Z,63.13
2023-06-30T21:13:40.544Z,63.08
2023-06-30T21:16:08.171Z,63.32
2023-06-30T21:18:34.858Z,63.29
2023-06-30T21:21:01.459Z,63.42
2023-06-30T21:23:27.995Z,63.54
2023-06-30T21:25:54.530Z,63.96
2023-06-30T21:28:21.168Z,63.43
2023-06-30T21:30:47.905Z,63.86
2023-06-30T21:33:14.910Z,63.97
2023-06-30T21:35:41.569Z,64.23
2023-06-30T21:38:08.158Z,64.17
2023-06-30T21:40:34.717Z,64.03
2023-06-30T21:43:01.272Z,64.38
2023-06-30T21:45:27.814Z,64.73
2023-06-30T21:47:54.353Z,64.76
2023-06-30T21:50:20.943Z,64.81
2023-06-30T21:52:47.454Z,64.81
2023-06-30T21:55:14.260Z,64.64
2023-06-30T21:57:40.835Z,64.75
2023-06-30T22:00:08.888Z,65.36
2023-06-30T22:02:35.594Z,65.46
2023-06-30T22:05:02.478Z,65.36
2023-06-30T22:07:31.077Z,65.13
2023-06-30T22:09:57.708Z,65.17
2023-06-30T22:12:24.263Z,65.25
2023-06-30T22:14:50.879Z,65.22
2023-06-30T22:17:17.421Z,65.59
2023-06-30T22:19:43.956Z,65.42
2023-06-30T22:22:10.514Z,65.73
2023-06-30T22:24:37.633Z,66.15
2023-06-30T22:27:04.600Z,66.90
2023-06-30T22:29:31.263Z,67.42
2023-06-30T22:31:57.913Z,68.14
2023-06-30T22:34:24.975Z,69.54
2023-06-30T22:36:51.510Z,71.05
2023-06-30T22:39:18.035Z,71.60
2023-06-30T22:41:44.596Z,72.61
2023-06-30T22:44:11.279Z,72.29
2023-06-30T22:46:37.901Z,72.99
2023-06-30T22:49:05.821Z,75.27
2023-06-30T22:51:32.465Z,77.72
2023-06-30T22:53:59.018Z,80.14
2023-06-30T22:56:25.607Z,83.40
2023-06-30T22:58:52.310Z,86.24
2023-06-30T23:01:19.020Z,88.07
2023-06-30T23:03:45.646Z,89.49
2023-06-30T23:06:12.367Z,91.64
2023-06-30T23:08:38.930Z,93.13
2023-06-30T23:11:05.442Z,93.52
2023-06-30T23:13:32.088Z,94.14
2023-06-30T23:16:02.439Z,94.69
2023-06-30T23:18:38.873Z,95.01
2023-06-30T23:21:10.691Z,94.17
2023-06-30T23:23:41.588Z,94.17
2023-06-30T23:26:13.855Z,94.32
2023-06-30T23:28:44.476Z,94.25
2023-06-30T23:31:11.163Z,93.65
2023-06-30T23:33:38.527Z,93.91
2023-06-30T23:36:05.251Z,93.39
2023-06-30T23:38:31.832Z,92.21
2023-06-30T23:40:58.442Z,91.57
2023-06-30T23:43:24.996Z,91.50
2023-06-30T23:45:51.812Z,91.76
2023-06-30T23:48:18.337Z,91.58
2023-06-30T23:50:45.148Z,91.71
2023-06-30T23:53:12.081Z,91.17
2023-06-30T23:55:38.640Z,90.87
2023-06-30T23:58:05.217Z,90.69
